Strona główna
METAR-TAF:

METAR-TAF

Lotnisko :

Manassas Regional Airport (Harry P. Davis Field)

Manassas, Wirginia, Stany Zjednoczone

Szerokość geograficzna: 38-43N, Długość geograficzna: 077-31W, wysokość: 59 m

Aktualna obserwacja pogody

Raport powstał 53 minut temu, godzina 18:56 UTC
Wiatr 6 kt od południe
Temperatura 8°C
Wilgotność 49%
Ciśnienie 1030 hPa
Widzialność: 16.1 km
bezchmurnie

METAR: KHEF 081856Z 18006KT 10SM CLR 08/M02 A3041 RMK AO2 SLP306 T00781017

czas: 14:49 (19:49 UTC)


TAF: brakujący

Obserwacja i prognoza pogody dla ponad 4000 lotnisk (raport METAR i TAF).

Dostępne stacje oznaczono żółtymi i czerwonymi punktami na mapie.

Najedź kursorem aby zobaczyć nazwę stacji.

Kliknij aby zobaczyć obserwacje i prognozy pogody.

Aby zmienić mapę: kliknij na zielony przycisk z czarnym krzyżykiem, aby powiększyć; na zielony przycisk z myślnikiem, aby pomniejszyć; na zielone strzałki, aby przejść do map sąsiednich.


METAR-TAF: